Observations
| Time | Sensor | AQI | SAQ | Temp °C | Hum % | Pres Pa | CO μg/m³ | H₂S μg/m³ | NO μg/m³ | NO₂ μg/m³ | O₃ μg/m³ | SO₂ μg/m³ | CO₂e PPM | VOC PPM | PM1 μg/m³ | PM2.5 μg/m³ | PM4 μg/m³ | PM10 μg/m³ | TPS µm |
|---|---|---|---|---|---|---|---|---|---|---|---|---|---|---|---|---|---|---|---|
| Wednesday 12 August 2026 | |||||||||||||||||||
| 10:44 | Trim Market St | 2 | 35.7 | 36 | 66,495 | 0 | 0 | 0.16 | 3.3 | 47.86 | 0 | 2.85 | 5.75 | 5.86 | |||||
| 10:43 | Trim Patrick St | 2 | 31.1 | 47 | 69,369 | 0 | 0 | 0.78 | 1.45 | 42.89 | 9.16 | 3.71 | 9.66 | 10.63 | |||||
| 10:42 | Trim Patrick St | 2 | 31 | 44 | 69,377 | 0 | 0 | 0.73 | 2.6 | 53.11 | 9.59 | 4.57 | 9.92 | 10.92 | |||||
| 10:42 | Trim Market St | 2 | 35.5 | 36 | 66,476 | 0 | 0 | 0.18 | 4.37 | 55 | 0 | 1.43 | 4.13 | 4.54 | |||||
| 10:41 | Trim Patrick St | 2 | 31 | 45 | 69,379 | 0 | 0 | 0.75 | 3.75 | 42.84 | 9.38 | 5.43 | 11.34 | 12.48 | |||||
| 10:41 | Trim Market St | 2 | 35.4 | 36 | 66,445 | 0 | 0 | 0.19 | 4.75 | 48.86 | 0 | 2.85 | 5.73 | 5.87 | |||||
| 10:40 | Trim Patrick St | 2 | 31 | 48 | 69,387 | 0 | 0 | 0.86 | 2.19 | 38.64 | 9.48 | 6.29 | 10.4 | 11.44 | |||||
| 10:39 | Trim Patrick St | 2 | 30.9 | 45 | 69,393 | 0 | 0 | 0.76 | 7.44 | 55.22 | 8.75 | 5.43 | 11.36 | 12.5 | |||||
| 10:39 | Trim Market St | 2 | 35.4 | 36 | 66,431 | 0 | 0 | 0.19 | 6.38 | 39.09 | 0 | 2.14 | 4.66 | 5.12 | |||||
| 10:38 | Trim Patrick St | 2 | 30.9 | 46 | 69,401 | 0 | 0 | 0.77 | 2.71 | 35.81 | 8.39 | 4.57 | 9.75 | 10.72 | |||||
| 10:38 | Trim Market St | 2 | 35.4 | 36 | 66,423 | 0.01 | 0 | 0.19 | 4.07 | 42.74 | 0 | 2.85 | 6.26 | 6.7 | |||||
| 10:36 | Trim Patrick St | 2 | 30.7 | 45 | 69,393 | 0 | 0 | 0.78 | 6.37 | 53.87 | 10.58 | 6.29 | 11.34 | 12.48 | |||||
| 10:35 | Trim Patrick St | 2 | 30.7 | 46 | 69,395 | 0 | 0 | 0.78 | 4.75 | 63.55 | 9.65 | 3.71 | 9.76 | 10.74 | |||||
| 10:35 | Trim Market St | 2 | 35.3 | 37 | 66,368 | 0.12 | 0 | 0.19 | 6.07 | 35.04 | 0 | 1.43 | 4.09 | 4.23 | |||||
| 10:34 | Trim Market St | 2 | 35.2 | 37 | 66,345 | 0.07 | 0 | 0.21 | 9.25 | 32.67 | 0 | 3.56 | 6.22 | 7.53 | |||||
| 10:33 | Trim Patrick St | 2 | 30.5 | 46 | 69,373 | 0 | 0 | 0.8 | 2.58 | 31.33 | 8.57 | 6.29 | 11.3 | 12.43 | |||||
| 10:32 | Trim Patrick St | 2 | 30.4 | 48 | 69,395 | 0 | 0 | 0.87 | 8.85 | 50.29 | 8.36 | 5.43 | 11.11 | 12.22 | |||||
| 10:31 | Trim Patrick St | 2 | 30.3 | 50 | 69,397 | 0 | 0 | 0.91 | 5.74 | 33.1 | 6.85 | 5.43 | 10.24 | 11.27 | |||||
| 10:30 | Trim Patrick St | 2 | 30.2 | 48 | 69,401 | 0.03 | 0 | 0.87 | 1.5 | 31.96 | 9.41 | 4.57 | 10.38 | 11.42 | |||||
| 10:29 | Trim Patrick St | 2 | 30.1 | 49 | 69,436 | 0.1 | 0 | 0.93 | 10.57 | 40.97 | 8.62 | 5.43 | 10.32 | 11.35 | |||||